createdAt,value
2022-10-07T00:01:13.981Z,13.52
2022-10-07T00:06:35.525Z,18.65
2022-10-07T00:11:57.128Z,18.33
2022-10-07T00:17:18.757Z,21.48
2022-10-07T00:22:40.018Z,20.25
2022-10-07T00:28:01.492Z,22.75
2022-10-07T00:33:22.910Z,26.75
2022-10-07T00:38:56.350Z,23.02
2022-10-07T00:44:33.457Z,22.08
2022-10-07T00:50:24.657Z,23.27
2022-10-07T00:55:46.347Z,24.08
2022-10-07T01:01:08.547Z,25.05
2022-10-07T01:06:30.483Z,25.63
2022-10-07T01:11:54.858Z,22.98
2022-10-07T01:17:46.408Z,19.77
2022-10-07T01:23:30.196Z,19.13
2022-10-07T01:29:01.260Z,18.42
2022-10-07T01:34:24.824Z,15.35
2022-10-07T01:39:53.004Z,15.13
2022-10-07T01:45:21.429Z,14.90
2022-10-07T01:50:43.661Z,15.05
2022-10-07T01:56:21.450Z,14.13
2022-10-07T02:02:06.978Z,12.52
2022-10-07T02:08:07.711Z,12.35
2022-10-07T02:13:56.238Z,13.05
2022-10-07T02:19:45.150Z,14.40
2022-10-07T02:25:07.014Z,13.95
2022-10-07T02:30:29.041Z,12.25
2022-10-07T02:36:08.069Z,11.82
2022-10-07T02:41:44.868Z,11.88
2022-10-07T02:47:23.484Z,10.82
2022-10-07T02:52:46.074Z,11.13
2022-10-07T02:58:12.800Z,10.55
2022-10-07T03:03:34.183Z,10.60
2022-10-07T03:09:00.587Z,9.18
2022-10-07T03:14:24.877Z,9.07
2022-10-07T03:19:46.858Z,9.13
2022-10-07T03:25:08.995Z,11.27
2022-10-07T03:30:31.338Z,11.40
2022-10-07T03:35:54.032Z,9.50
2022-10-07T03:41:16.220Z,10.13
2022-10-07T03:46:38.994Z,10.73
2022-10-07T03:52:00.734Z,9.13
2022-10-07T03:57:40.527Z,10.07
2022-10-07T04:03:03.619Z,10.88
2022-10-07T04:08:28.234Z,9.43
2022-10-07T04:13:51.409Z,9.60
2022-10-07T04:19:14.361Z,10.05
2022-10-07T04:24:37.292Z,10.20
2022-10-07T04:29:59.207Z,7.97
2022-10-07T04:35:22.882Z,8.57
2022-10-07T04:40:48.606Z,11.63
2022-10-07T04:46:15.025Z,9.57
2022-10-07T04:51:51.812Z,9.57
2022-10-07T04:57:16.413Z,8.15
2022-10-07T05:02:39.112Z,9.95
2022-10-07T05:08:00.768Z,9.75
2022-10-07T05:13:25.271Z,9.70
2022-10-07T05:18:48.229Z,7.07
2022-10-07T05:24:10.985Z,8.73
2022-10-07T05:29:34.136Z,7.28
2022-10-07T05:34:55.876Z,7.30
2022-10-07T05:40:17.613Z,8.30
2022-10-07T05:45:39.506Z,7.70
2022-10-07T05:51:01.121Z,8.90
2022-10-07T05:56:24.548Z,8.93
2022-10-07T06:01:48.579Z,7.88
2022-10-07T06:07:19.573Z,8.43
2022-10-07T06:13:00.915Z,10.05
2022-10-07T06:18:22.789Z,8.75
2022-10-07T06:23:49.501Z,6.80
2022-10-07T06:29:11.096Z,7.43
2022-10-07T06:34:32.677Z,8.80
2022-10-07T06:39:58.678Z,7.45
2022-10-07T06:45:21.998Z,5.90
2022-10-07T06:50:54.698Z,6.15
2022-10-07T06:56:18.102Z,6.80
2022-10-07T07:01:39.704Z,6.38
2022-10-07T07:07:02.372Z,5.85
